Driftmaster — AEJH — position and weather

sailwx.info

Track history (hours):
 
Tides and Currents Weather Stations Pressure Air Temp Water Temp Dewpoint Dewpoint Depression Visibility Wind Speed Wind Dir Waves Ship Positions

Driftmaster

Last reported at 2017-Sep-19 21:56 UTC. Time now 2017-Sep-19 22:13 UTC.
Position N 40°41' W 074°04'.

Length 30 m; draft 3 m.

MMSI: 366999411.

Date/timePositionNaut miles runAvg speedWind from/ knotsBaromVisibWave heightAir tempDewpointWater temp
2017-Sep-19 21:56N 40°41' W 074°04'0 0.0
2017-Sep-19 21:29N 40°41' W 074°04'0 0.0
2017-Sep-19 20:59N 40°41' W 074°04'0 0.0
2017-Sep-19 20:29N 40°41' W 074°04'0 0.0
2017-Sep-19 19:59N 40°41' W 074°04'0 0.1
2017-Sep-19 19:29N 40°41' W 074°04'0 0.1
2017-Sep-19 19:00N 40°41' W 074°04'1 2.0
2017-Sep-19 18:30N 40°41' W 074°03'2 3.2
2017-Sep-19 18:00N 40°41' W 074°01'1 1.6
2017-Sep-19 17:30N 40°42' W 074°01'2 3.2
2017-Sep-19 17:00N 40°43' W 074°02'1 1.7
2017-Sep-19 16:30N 40°44' W 074°02'0 0.0
2017-Sep-19 16:00N 40°44' W 074°02'0 0.0
2017-Sep-19 15:30N 40°44' W 074°02'0 0.0
2017-Sep-19 15:00N 40°44' W 074°02'0 0.5
2017-Sep-19 14:30N 40°44' W 074°01'3 5.2
2017-Sep-19 14:00N 40°41' W 074°02'3 5.1
2017-Sep-19 13:30N 40°39' W 074°03'1 3.0
2017-Sep-19 13:00N 40°38' W 074°03'2 4.0
2017-Sep-19 12:30N 40°40' W 074°03'2 3.6
2017-Sep-19 12:00N 40°41' W 074°04'0 0.0
2017-Sep-19 11:28N 40°41' W 074°04'0 0.0
2017-Sep-19 10:58N 40°41' W 074°04'0 0.0
2017-Sep-19 10:25N 40°41' W 074°04'0 0.0
2017-Sep-19 09:58N 40°41' W 074°04'0 0.0
2017-Sep-19 09:28N 40°41' W 074°04'0 0.0
2017-Sep-19 08:58N 40°41' W 074°04'0 0.0
2017-Sep-19 08:28N 40°41' W 074°04'0 0.0
2017-Sep-19 07:55N 40°41' W 074°04'0 0.0
2017-Sep-19 07:28N 40°41' W 074°04'0 0.0
2017-Sep-19 06:58N 40°41' W 074°04'0 0.0
2017-Sep-19 06:30N 40°41' W 074°04'0 0.0
2017-Sep-19 06:00N 40°41' W 074°04'0 0.0
2017-Sep-19 05:30N 40°41' W 074°04'0 0.0
2017-Sep-19 05:00N 40°41' W 074°04'0 0.0
2017-Sep-19 04:30N 40°41' W 074°04'0 0.0
2017-Sep-19 04:00N 40°41' W 074°04'0 0.0
2017-Sep-19 03:30N 40°41' W 074°04'0 0.0
2017-Sep-19 02:57N 40°41' W 074°04'0 0.0
2017-Sep-19 02:30N 40°41' W 074°04'0 0.0
2017-Sep-19 01:54N 40°41' W 074°04'0 0.0
2017-Sep-19 01:30N 40°41' W 074°04'0 0.0
2017-Sep-19 01:00N 40°41' W 074°04'0 0.0
2017-Sep-19 00:30N 40°41' W 074°04'0 0.0
2017-Sep-18 23:54N 40°41' W 074°04'0 0.0
2017-Sep-18 23:30N 40°41' W 074°04'0 0.0
2017-Sep-18 23:00N 40°41' W 074°04'0 0.0
2017-Sep-18 22:30N 40°41' W 074°04'0 0.0
2017-Sep-18 22:00N 40°41' W 074°04'0 0.0
2017-Sep-18 21:30N 40°41' W 074°04'0 0.0
2017-Sep-18 21:00N 40°41' W 074°04'0 0.0
2017-Sep-18 20:30N 40°41' W 074°04'0 0.0
2017-Sep-18 20:00N 40°41' W 074°04'0 0.0
2017-Sep-18 19:30N 40°41' W 074°04'0 0.0
2017-Sep-18 19:00N 40°41' W 074°04'0 0.0
2017-Sep-18 18:27N 40°41' W 074°04'0 0.0
2017-Sep-18 18:00N 40°41' W 074°04'0 0.0
2017-Sep-18 17:30N 40°41' W 074°04'0 0.0
2017-Sep-18 16:57N 40°41' W 074°04'0 0.0
2017-Sep-18 16:30N 40°41' W 074°04'0 0.0
2017-Sep-18 16:00N 40°41' W 074°04'0 0.0
2017-Sep-18 15:30N 40°41' W 074°04'0 0.0
2017-Sep-18 15:00N 40°41' W 074°04'0 0.0
2017-Sep-18 14:29N 40°41' W 074°04'0 0.0
2017-Sep-18 13:59N 40°41' W 074°04'0 0.0
2017-Sep-18 13:29N 40°41' W 074°04'0 0.0
2017-Sep-18 12:56N 40°41' W 074°04'0 0.0
2017-Sep-18 12:26N 40°41' W 074°04'0 0.0
2017-Sep-18 11:56N 40°41' W 074°04'0 0.0
2017-Sep-18 11:29N 40°41' W 074°04'0 0.0
2017-Sep-18 10:59N 40°41' W 074°04'0 0.0
2017-Sep-18 10:26N 40°41' W 074°04'0 0.0
2017-Sep-18 09:59N 40°41' W 074°04'0 0.0
2017-Sep-18 09:29N 40°41' W 074°04'0 0.0
2017-Sep-18 08:59N 40°41' W 074°04'0 0.0
2017-Sep-18 08:29N 40°41' W 074°04'0 0.0
2017-Sep-18 07:59N 40°41' W 074°04'0 0.0
2017-Sep-18 07:29N 40°41' W 074°04'0 0.0
2017-Sep-18 06:59N 40°41' W 074°04'0 0.0
2017-Sep-18 06:29N 40°41' W 074°04'0 0.0
2017-Sep-18 05:59N 40°41' W 074°04'0 0.0
2017-Sep-18 05:29N 40°41' W 074°04'0 0.0
2017-Sep-18 04:59N 40°41' W 074°04'0 0.0
2017-Sep-18 04:29N 40°41' W 074°04'0 0.0
2017-Sep-18 03:59N 40°41' W 074°04'0 0.0
2017-Sep-18 03:26N 40°41' W 074°04'0 0.0
2017-Sep-18 02:59N 40°41' W 074°04'0 0.0
2017-Sep-18 02:29N 40°41' W 074°04'0 0.0
2017-Sep-18 01:59N 40°41' W 074°04'0 0.0
2017-Sep-18 01:26N 40°41' W 074°04'0 0.0
2017-Sep-18 00:59N 40°41' W 074°04'0 0.0
2017-Sep-18 00:29N 40°41' W 074°04'0 0.0
2017-Sep-17 23:59N 40°41' W 074°04'0 0.0
2017-Sep-17 23:29N 40°41' W 074°04'0 0.0
2017-Sep-17 22:59N 40°41' W 074°04'0 0.0
2017-Sep-17 22:30N 40°41' W 074°04'0 0.0
2017-Sep-17 22:00N 40°41' W 074°04'0 0.0
2017-Sep-17 21:30N 40°41' W 074°04'0 0.0
2017-Sep-17 20:57N 40°41' W 074°04'0 0.0
2017-Sep-17 20:24N 40°41' W 074°04'0 0.0
2017-Sep-17 19:57N 40°41' W 074°04'0 0.0
2017-Sep-17 19:27N 40°41' W 074°04'0 0.0
2017-Sep-17 19:00N 40°41' W 074°04'0 0.0
2017-Sep-17 18:30N 40°41' W 074°04'0 0.0
2017-Sep-17 18:00N 40°41' W 074°04'0 0.0
2017-Sep-17 17:30N 40°41' W 074°04'0 0.0
2017-Sep-17 16:57N 40°41' W 074°04'0 0.0
2017-Sep-17 16:27N 40°41' W 074°04'0 0.0
2017-Sep-17 16:00N 40°41' W 074°04'0 0.0
2017-Sep-17 15:30N 40°41' W 074°04'0 0.0
2017-Sep-17 15:00N 40°41' W 074°04'0 0.0
2017-Sep-17 14:30N 40°41' W 074°04'0 0.0
2017-Sep-17 14:00N 40°41' W 074°04'0 0.0
2017-Sep-17 13:30N 40°41' W 074°04'0 0.0
2017-Sep-17 13:00N 40°41' W 074°04'0 0.0
2017-Sep-17 12:30N 40°41' W 074°04'0 0.0
2017-Sep-17 12:00N 40°41' W 074°04'0 0.0
2017-Sep-17 11:30N 40°41' W 074°04'0 0.0
2017-Sep-17 11:00N 40°41' W 074°04'0 0.0
2017-Sep-17 10:30N 40°41' W 074°04'0 0.0
2017-Sep-17 10:00N 40°41' W 074°04'0 0.0
2017-Sep-17 09:30N 40°41' W 074°04'0 0.0
2017-Sep-17 09:00N 40°41' W 074°04'0 0.0
2017-Sep-17 08:30N 40°41' W 074°04'0 0.0
2017-Sep-17 08:00N 40°41' W 074°04'0 0.0
2017-Sep-17 07:30N 40°41' W 074°04'0 0.0
2017-Sep-17 06:57N 40°41' W 074°04'0 0.0
2017-Sep-17 06:28N 40°41' W 074°04'0 0.0
2017-Sep-17 05:58N 40°41' W 074°04'0 0.0
2017-Sep-17 05:28N 40°41' W 074°04'0 0.0
2017-Sep-17 04:58N 40°41' W 074°04'0 0.0
2017-Sep-17 04:28N 40°41' W 074°04'0 0.0
2017-Sep-17 03:58N 40°41' W 074°04'0 0.0
2017-Sep-17 03:28N 40°41' W 074°04'0 0.0
2017-Sep-17 02:58N 40°41' W 074°04'0 0.0
2017-Sep-17 02:28N 40°41' W 074°04'0 0.0
2017-Sep-17 01:58N 40°41' W 074°04'0 0.0
2017-Sep-17 01:16N 40°41' W 074°04'0 0.0
2017-Sep-17 00:58N 40°41' W 074°04'0 0.0
2017-Sep-17 00:28N 40°41' W 074°04'0 0.0
2017-Sep-16 23:58N 40°41' W 074°04'0 0.0
2017-Sep-16 23:25N 40°41' W 074°04'0 0.0
2017-Sep-16 22:58N 40°41' W 074°04'0 0.0
2017-Sep-16 22:28N 40°41' W 074°04'0 0.0
2017-Sep-16 21:55N 40°41' W 074°04'0 0.1
2017-Sep-16 21:28N 40°41' W 074°04'0 0.0
2017-Sep-16 20:58N 40°41' W 074°04'0 0.0
2017-Sep-16 20:28N 40°41' W 074°04'0 0.0
2017-Sep-16 19:58N 40°41' W 074°04'0 0.0
2017-Sep-16 19:30N 40°41' W 074°04'0 0.0
2017-Sep-16 19:00N 40°41' W 074°04'0 0.0
2017-Sep-16 18:29N 40°41' W 074°04'0 0.0
2017-Sep-16 17:59N 40°41' W 074°04'0 0.0
2017-Sep-16 17:30N 40°41' W 074°04'0 0.0
2017-Sep-16 16:59N 40°41' W 074°04'0 0.0
2017-Sep-16 16:29N 40°41' W 074°04'0 0.0
2017-Sep-16 15:59N 40°41' W 074°04'0 0.0
2017-Sep-16 15:29N 40°41' W 074°04'0 0.0
2017-Sep-16 14:59N 40°41' W 074°04'0 0.0
2017-Sep-16 14:30N 40°41' W 074°04'0 0.0
2017-Sep-16 14:00N 40°41' W 074°04'0 0.0
2017-Sep-16 13:25N 40°41' W 074°04'0 0.0
2017-Sep-16 12:58N 40°41' W 074°04'0 0.0
2017-Sep-16 12:28N 40°41' W 074°04'0 0.0
2017-Sep-16 11:58N 40°41' W 074°04'0 0.0
2017-Sep-16 11:30N 40°41' W 074°04'0 0.0
2017-Sep-16 11:00N 40°41' W 074°04'0 0.0
2017-Sep-16 10:30N 40°41' W 074°04'0 0.0
2017-Sep-16 10:00N 40°41' W 074°04'0 0.0
2017-Sep-16 09:30N 40°41' W 074°04'0 0.0
2017-Sep-16 09:00N 40°41' W 074°04'0 0.0
2017-Sep-16 08:30N 40°41' W 074°04'0 0.0
2017-Sep-16 08:00N 40°41' W 074°04'0 0.0
2017-Sep-16 07:30N 40°41' W 074°04'0 0.0
2017-Sep-16 07:00N 40°41' W 074°04'0 0.0
2017-Sep-16 06:30N 40°41' W 074°04'0 0.0
2017-Sep-16 06:00N 40°41' W 074°04'0 0.0
2017-Sep-16 05:30N 40°41' W 074°04'0 0.0
2017-Sep-16 05:00N 40°41' W 074°04'0 0.0
2017-Sep-16 04:30N 40°41' W 074°04'0 0.0
2017-Sep-16 04:00N 40°41' W 074°04'0 0.0
2017-Sep-16 03:30N 40°41' W 074°04'0 0.0
2017-Sep-16 03:00N 40°41' W 074°04'0 0.0
2017-Sep-16 02:30N 40°41' W 074°04'0 0.0
2017-Sep-16 02:00N 40°41' W 074°04'0 0.0
2017-Sep-16 01:30N 40°41' W 074°04'0 0.0
2017-Sep-16 01:00N 40°41' W 074°04'0 0.0
2017-Sep-16 00:31N 40°41' W 074°04'0 0.0
2017-Sep-16 00:01N 40°41' W 074°04'0 0.0
2017-Sep-15 23:30N 40°41' W 074°04'0 0.0
2017-Sep-15 23:01N 40°41' W 074°04'0 0.0
2017-Sep-15 22:30N 40°41' W 074°04'0 0.0
2017-Sep-15 22:01N 40°41' W 074°04'0 0.0
2017-Sep-15 21:31N 40°41' W 074°04'0 0.0
2017-Sep-15 21:01N 40°41' W 074°04'0 0.0
2017-Sep-15 20:31N 40°41' W 074°04'0 0.0
2017-Sep-15 20:01N 40°41' W 074°04'0 0.0
2017-Sep-15 19:31N 40°41' W 074°04'0 0.0
2017-Sep-15 19:01N 40°41' W 074°04'0 0.0
2017-Sep-15 18:31N 40°41' W 074°04'0 0.0
2017-Sep-15 18:01N 40°41' W 074°04'0 0.0
2017-Sep-15 17:31N 40°41' W 074°04'0 0.0
2017-Sep-15 17:01N 40°41' W 074°04'0 0.0
2017-Sep-15 16:30N 40°41' W 074°04'0 0.0
2017-Sep-15 16:00N 40°41' W 074°04'0 0.0
2017-Sep-15 15:31N 40°41' W 074°04'0 0.0
2017-Sep-15 15:01N 40°41' W 074°04'0 0.0
2017-Sep-15 14:31N 40°41' W 074°04'0 0.0
2017-Sep-15 14:01N 40°41' W 074°04'0 0.0
2017-Sep-15 13:30N 40°41' W 074°04'0 0.0
2017-Sep-15 13:01N 40°41' W 074°04'0 0.0
2017-Sep-15 12:30N 40°41' W 074°04'0 0.0
2017-Sep-15 12:00N 40°41' W 074°04'0 0.0
2017-Sep-15 11:31N 40°41' W 074°04'0 0.0
2017-Sep-15 11:01N 40°41' W 074°04'0 0.0
2017-Sep-15 10:31N 40°41' W 074°04'0 0.0
2017-Sep-15 10:01N 40°41' W 074°04'0 0.0
2017-Sep-15 09:30N 40°41' W 074°04'0 0.0
2017-Sep-15 09:00N 40°41' W 074°04'0 0.0
2017-Sep-15 08:31N 40°41' W 074°04'0 0.0
2017-Sep-15 08:01N 40°41' W 074°04'0 0.0
2017-Sep-15 07:30N 40°41' W 074°04'0 0.0
2017-Sep-15 07:01N 40°41' W 074°04'0 0.0
2017-Sep-15 06:30N 40°41' W 074°04'0 0.0
2017-Sep-15 06:00N 40°41' W 074°04'0 0.0
2017-Sep-15 05:30N 40°41' W 074°04'0 0.0
2017-Sep-15 05:01N 40°41' W 074°04'0 0.0
2017-Sep-15 04:31N 40°41' W 074°04'0 0.0
2017-Sep-15 04:00N 40°41' W 074°04'0 0.0
2017-Sep-15 03:31N 40°41' W 074°04'0 0.0
2017-Sep-15 03:01N 40°41' W 074°04'0 0.0
2017-Sep-15 02:31N 40°41' W 074°04'0 0.0
2017-Sep-15 02:01N 40°41' W 074°04'0 0.0
2017-Sep-15 01:30N 40°41' W 074°04'0 0.0
2017-Sep-15 01:01N 40°41' W 074°04'0 0.0
2017-Sep-15 00:31N 40°41' W 074°04'0 0.0
2017-Sep-15 00:00N 40°41' W 074°04'0 0.0
2017-Sep-14 23:31N 40°41' W 074°04'0 0.0
2017-Sep-14 23:01N 40°41' W 074°04'0 0.0
2017-Sep-14 22:31N 40°41' W 074°04'0 0.0
2017-Sep-14 22:00N 40°41' W 074°04'0 0.0
2017-Sep-14 21:30N 40°41' W 074°04'0 0.0
2017-Sep-14 21:01N 40°41' W 074°04'0 0.0
2017-Sep-14 20:31N 40°41' W 074°04'0 0.0
2017-Sep-14 19:31N 40°41' W 074°04'0 0.0
2017-Sep-14 19:00N 40°41' W 074°04'0 0.2
2017-Sep-14 18:30N 40°41' W 074°04'0 0.3
2017-Sep-14 18:00N 40°41' W 074°04'2 3.1
2017-Sep-14 17:30N 40°41' W 074°02'3 5.2
2017-Sep-14 17:01N 40°44' W 074°02'1 1.0
2017-Sep-14 16:31N 40°44' W 074°02'0 0.0
2017-Sep-14 16:01N 40°44' W 074°02'0 0.0
2017-Sep-14 15:31N 40°44' W 074°02'1 2.0
2017-Sep-14 15:01N 40°43' W 074°01'2 3.4
2017-Sep-14 14:30N 40°42' W 073°59'1 1.9
2017-Sep-14 14:01N 40°42' W 074°00'2 4.2
2017-Sep-14 13:31N 40°40' W 074°02'2 4.3
2017-Sep-14 13:01N 40°38' W 074°03'1 2.7
2017-Sep-14 12:30N 40°37' W 074°03'2 4.5
2017-Sep-14 12:01N 40°39' W 074°03'2 4.5
2017-Sep-14 11:31N 40°41' W 074°04'0 0.0
2017-Sep-14 10:59N 40°41' W 074°04'0 0.0
2017-Sep-14 10:30N 40°41' W 074°04'0 0.0
2017-Sep-14 10:00N 40°41' W 074°04'0 0.0
2017-Sep-14 09:30N 40°41' W 074°04'0 0.0
2017-Sep-14 09:00N 40°41' W 074°04'0 0.0
2017-Sep-14 08:30N 40°41' W 074°04'0 0.0
2017-Sep-14 08:00N 40°41' W 074°04'0 0.0
2017-Sep-14 07:30N 40°41' W 074°04'0 0.0
2017-Sep-14 07:00N 40°41' W 074°04'0 0.0
2017-Sep-14 06:30N 40°41' W 074°04'0 0.0
2017-Sep-14 06:00N 40°41' W 074°04'0 0.0
2017-Sep-14 05:30N 40°41' W 074°04'0 0.0
2017-Sep-14 05:00N 40°41' W 074°04'0 0.0
2017-Sep-14 04:30N 40°41' W 074°04'0 0.0
2017-Sep-14 04:00N 40°41' W 074°04'0 0.0
2017-Sep-14 03:30N 40°41' W 074°04'0 0.0
2017-Sep-14 03:00N 40°41' W 074°04'0 0.0
2017-Sep-14 02:30N 40°41' W 074°04'0 0.0
2017-Sep-14 02:00N 40°41' W 074°04'0 0.0
2017-Sep-14 01:27N 40°41' W 074°04'0 0.0
2017-Sep-14 01:00N 40°41' W 074°04'0 0.0
2017-Sep-14 00:30N 40°41' W 074°04'0 0.0
2017-Sep-14 00:00N 40°41' W 074°04'0 0.0
2017-Sep-13 23:30N 40°41' W 074°04'0 0.0
2017-Sep-13 23:00N 40°41' W 074°04'0 0.0
2017-Sep-13 22:21N 40°41' W 074°04'0 0.0
2017-Sep-13 22:00N 40°41' W 074°04'0 0.0
2017-Sep-13 21:30N 40°41' W 074°04'0 0.0
2017-Sep-13 21:00N 40°41' W 074°04'0 0.0
2017-Sep-13 20:30N 40°41' W 074°04'0 0.0
2017-Sep-13 20:00N 40°41' W 074°04'0 0.0
2017-Sep-13 19:30N 40°41' W 074°04'0 0.0
2017-Sep-13 19:00N 40°41' W 074°04'0 0.5
2017-Sep-13 18:30N 40°41' W 074°04'2 3.4
2017-Sep-13 18:00N 40°42' W 074°02'2 3.7
2017-Sep-13 17:30N 40°43' W 074°01'2 3.3
2017-Sep-13 17:00N 40°45' W 074°01'1 1.8
2017-Sep-13 16:30N 40°44' W 074°02'0 0.0
2017-Sep-13 16:00N 40°44' W 074°02'0 0.0
2017-Sep-13 15:30N 40°44' W 074°02'0 0.0
2017-Sep-13 15:00N 40°44' W 074°02'1 1.9
2017-Sep-13 14:30N 40°43' W 074°01'2 4.2
2017-Sep-13 14:00N 40°41' W 074°02'2 3.8
2017-Sep-13 13:30N 40°40' W 074°00'0 0.9
2017-Sep-13 13:00N 40°40' W 074°01'2 4.7
2017-Sep-13 12:30N 40°41' W 074°04'1 1.6
2017-Sep-13 12:00N 40°41' W 074°04'0 0.0
2017-Sep-12 19:26N 40°41' W 074°04'1 1.7
2017-Sep-12 19:00N 40°41' W 074°04'2 4.3
2017-Sep-12 18:30N 40°42' W 074°01'0 0.7
2017-Sep-12 18:00N 40°42' W 074°01'2 3.2
2017-Sep-12 17:30N 40°44' W 074°01'2 3.1
2017-Sep-12 17:00N 40°45' W 074°01'1 2.2
2017-Sep-12 16:30N 40°44' W 074°02'0 0.1
2017-Sep-12 16:00N 40°44' W 074°02'0 0.0
2017-Sep-12 15:30N 40°44' W 074°02'0 0.0
2017-Sep-12 15:00N 40°44' W 074°02'1 1.1
2017-Sep-12 14:30N 40°44' W 074°01'2 4.4
2017-Sep-12 14:01N 40°42' W 074°01'1 2.3
2017-Sep-12 13:30N 40°41' W 074°01'3 5.4
2017-Sep-12 13:00N 40°39' W 074°02'3 5.5
2017-Sep-12 12:30N 40°41' W 074°04'0 0.1
2017-Sep-12 12:00N 40°41' W 074°04'0 0.0
2017-Sep-12 11:26N 40°41' W 074°04'0 0.0
2017-Sep-12 10:59N 40°41' W 074°04'0 0.0
2017-Sep-12 10:29N 40°41' W 074°04'0 0.0
2017-Sep-12 09:59N 40°41' W 074°04'0 0.0
2017-Sep-12 09:29N 40°41' W 074°04'0 0.0
2017-Sep-12 08:59N 40°41' W 074°04'0 0.0
2017-Sep-12 08:29N 40°41' W 074°04'0 0.0
2017-Sep-12 07:59N 40°41' W 074°04'0 0.0
2017-Sep-12 07:29N 40°41' W 074°04'0 0.0
2017-Sep-12 06:59N 40°41' W 074°04'0 0.0
2017-Sep-12 06:29N 40°41' W 074°04'0 0.0
2017-Sep-12 05:56N 40°41' W 074°04'0 0.0
2017-Sep-12 05:29N 40°41' W 074°04'0 0.0
2017-Sep-12 04:59N 40°41' W 074°04'0 0.0
2017-Sep-12 04:29N 40°41' W 074°04'0 0.0
2017-Sep-12 03:59N 40°41' W 074°04'0 0.0
2017-Sep-12 03:29N 40°41' W 074°04'0 0.0
2017-Sep-12 02:59N 40°41' W 074°04'0 0.0
2017-Sep-12 02:26N 40°41' W 074°04'0 0.0
2017-Sep-12 01:59N 40°41' W 074°04'0 0.0
2017-Sep-12 01:29N 40°41' W 074°04'0 0.0
2017-Sep-12 00:59N 40°41' W 074°04'0 0.0
2017-Sep-12 00:29N 40°41' W 074°04'0 0.0
2017-Sep-11 23:59N 40°41' W 074°04'0 0.0
2017-Sep-11 23:29N 40°41' W 074°04'0 0.0
2017-Sep-11 22:56N 40°41' W 074°04'0 0.0
2017-Sep-11 22:29N 40°41' W 074°04'0 0.0
2017-Sep-11 21:59N 40°41' W 074°04'0 0.0
2017-Sep-11 21:29N 40°41' W 074°04'0 0.0
2017-Sep-11 20:56N 40°41' W 074°04'0 0.0
2017-Sep-11 20:29N 40°41' W 074°04'0 0.0
2017-Sep-11 19:56N 40°41' W 074°04'0 0.0
2017-Sep-11 19:29N 40°41' W 074°04'1 2.1
2017-Sep-11 19:00N 40°41' W 074°03'2 4.6
2017-Sep-11 18:30N 40°42' W 074°01'2 3.6
2017-Sep-11 18:00N 40°43' W 074°02'1 1.5
2017-Sep-11 17:30N 40°44' W 074°02'0 0.0
2017-Sep-11 17:00N 40°44' W 074°02'3 6.5
2017-Sep-11 16:30N 40°41' W 074°03'1 2.7
2017-Sep-11 15:59N 40°41' W 074°04'0 0.0
2017-Sep-11 15:29N 40°41' W 074°04'0 0.0
2017-Sep-11 14:59N 40°41' W 074°04'0 0.0
2017-Sep-11 14:30N 40°41' W 074°04'0 0.0
2017-Sep-11 14:00N 40°41' W 074°04'0 0.0
2017-Sep-11 13:24N 40°41' W 074°04'0 0.0
2017-Sep-11 13:00N 40°41' W 074°04'0 0.0
2017-Sep-11 12:30N 40°41' W 074°04'0 0.0
2017-Sep-11 11:57N 40°41' W 074°04'0 0.0
2017-Sep-10 12:14N 40°41' W 074°04'0 0.0
2017-Sep-10 11:59N 40°41' W 074°04'0 0.0
2017-Sep-10 11:27N 40°41' W 074°04'0 0.0
2017-Sep-10 10:57N 40°41' W 074°04'0 0.0
2017-Sep-10 10:27N 40°41' W 074°04'0 0.0
2017-Sep-10 10:00N 40°41' W 074°04'0 0.0
2017-Sep-10 09:30N 40°41' W 074°04'0 0.0
2017-Sep-10 09:00N 40°41' W 074°04'0 0.0
2017-Sep-10 08:30N 40°41' W 074°04'0 0.0
2017-Sep-10 08:00N 40°41' W 074°04'0 0.0
2017-Sep-10 07:30N 40°41' W 074°04'0 0.0
2017-Sep-10 07:00N 40°41' W 074°04'0 0.0
2017-Sep-10 06:30N 40°41' W 074°04'0 0.0
2017-Sep-10 05:57N 40°41' W 074°04'0 0.0
2017-Sep-10 05:30N 40°41' W 074°04'0 0.0
2017-Sep-10 05:00N 40°41' W 074°04'0 0.0
2017-Sep-10 04:27N 40°41' W 074°04'0 0.0
2017-Sep-10 04:00N 40°41' W 074°04'0 0.0
2017-Sep-10 03:30N 40°41' W 074°04'0 0.0
2017-Sep-10 03:00N 40°41' W 074°04'0 0.0
2017-Sep-10 02:30N 40°41' W 074°04'0 0.0
2017-Sep-10 02:00N 40°41' W 074°04'0 0.0
2017-Sep-10 01:27N 40°41' W 074°04'0 0.0
2017-Sep-10 01:00N 40°41' W 074°04'0 0.0
2017-Sep-10 00:30N 40°41' W 074°04'0 0.0
2017-Sep-10 00:00N 40°41' W 074°04'0 0.0
2017-Sep-09 23:30N 40°41' W 074°04'0 0.0
2017-Sep-09 23:00N 40°41' W 074°04'0 0.0
2017-Sep-09 22:30N 40°41' W 074°04'0 0.0
2017-Sep-09 22:00N 40°41' W 074°04'  
Track history (hours):
 
Tides and Currents Weather Stations Pressure Air Temp Water Temp Dewpoint Dewpoint Depression Visibility Wind Speed Wind Dir Waves Ship Positions

Driftmaster

Last reported at 2017-Sep-19 21:56 UTC. Time now 2017-Sep-19 22:13 UTC.
Position N 40°41' W 074°04'.

Length 30 m; draft 3 m.

MMSI: 366999411.

Date/timePositionNaut miles runAvg speedWind from/ knotsBaromVisibWave heightAir tempDewpointWater temp
2017-Sep-19 21:56N 40°41' W 074°04'0 0.0
2017-Sep-19 21:29N 40°41' W 074°04'0 0.0
2017-Sep-19 20:59N 40°41' W 074°04'0 0.0
2017-Sep-19 20:29N 40°41' W 074°04'0 0.0
2017-Sep-19 19:59N 40°41' W 074°04'0 0.1
2017-Sep-19 19:29N 40°41' W 074°04'0 0.1
2017-Sep-19 19:00N 40°41' W 074°04'1 2.0
2017-Sep-19 18:30N 40°41' W 074°03'2 3.2
2017-Sep-19 18:00N 40°41' W 074°01'1 1.6
2017-Sep-19 17:30N 40°42' W 074°01'2 3.2
2017-Sep-19 17:00N 40°43' W 074°02'1 1.7
2017-Sep-19 16:30N 40°44' W 074°02'0 0.0
2017-Sep-19 16:00N 40°44' W 074°02'0 0.0
2017-Sep-19 15:30N 40°44' W 074°02'0 0.0
2017-Sep-19 15:00N 40°44' W 074°02'0 0.5
2017-Sep-19 14:30N 40°44' W 074°01'3 5.2
2017-Sep-19 14:00N 40°41' W 074°02'3 5.1
2017-Sep-19 13:30N 40°39' W 074°03'1 3.0
2017-Sep-19 13:00N 40°38' W 074°03'2 4.0
2017-Sep-19 12:30N 40°40' W 074°03'2 3.6
2017-Sep-19 12:00N 40°41' W 074°04'0 0.0
2017-Sep-19 11:28N 40°41' W 074°04'0 0.0
2017-Sep-19 10:58N 40°41' W 074°04'0 0.0
2017-Sep-19 10:25N 40°41' W 074°04'0 0.0
2017-Sep-19 09:58N 40°41' W 074°04'0 0.0
2017-Sep-19 09:28N 40°41' W 074°04'0 0.0
2017-Sep-19 08:58N 40°41' W 074°04'0 0.0
2017-Sep-19 08:28N 40°41' W 074°04'0 0.0
2017-Sep-19 07:55N 40°41' W 074°04'0 0.0
2017-Sep-19 07:28N 40°41' W 074°04'0 0.0
2017-Sep-19 06:58N 40°41' W 074°04'0 0.0
2017-Sep-19 06:30N 40°41' W 074°04'0 0.0
2017-Sep-19 06:00N 40°41' W 074°04'0 0.0
2017-Sep-19 05:30N 40°41' W 074°04'0 0.0
2017-Sep-19 05:00N 40°41' W 074°04'0 0.0
2017-Sep-19 04:30N 40°41' W 074°04'0 0.0
2017-Sep-19 04:00N 40°41' W 074°04'0 0.0
2017-Sep-19 03:30N 40°41' W 074°04'0 0.0
2017-Sep-19 02:57N 40°41' W 074°04'0 0.0
2017-Sep-19 02:30N 40°41' W 074°04'0 0.0
2017-Sep-19 01:54N 40°41' W 074°04'0 0.0
2017-Sep-19 01:30N 40°41' W 074°04'0 0.0
2017-Sep-19 01:00N 40°41' W 074°04'0 0.0
2017-Sep-19 00:30N 40°41' W 074°04'0 0.0
2017-Sep-18 23:54N 40°41' W 074°04'0 0.0
2017-Sep-18 23:30N 40°41' W 074°04'0 0.0
2017-Sep-18 23:00N 40°41' W 074°04'0 0.0
2017-Sep-18 22:30N 40°41' W 074°04'0 0.0
2017-Sep-18 22:00N 40°41' W 074°04'0 0.0
2017-Sep-18 21:30N 40°41' W 074°04'0 0.0
2017-Sep-18 21:00N 40°41' W 074°04'0 0.0
2017-Sep-18 20:30N 40°41' W 074°04'0 0.0
2017-Sep-18 20:00N 40°41' W 074°04'0 0.0
2017-Sep-18 19:30N 40°41' W 074°04'0 0.0
2017-Sep-18 19:00N 40°41' W 074°04'0 0.0
2017-Sep-18 18:27N 40°41' W 074°04'0 0.0
2017-Sep-18 18:00N 40°41' W 074°04'0 0.0
2017-Sep-18 17:30N 40°41' W 074°04'0 0.0
2017-Sep-18 16:57N 40°41' W 074°04'0 0.0
2017-Sep-18 16:30N 40°41' W 074°04'0 0.0
2017-Sep-18 16:00N 40°41' W 074°04'0 0.0
2017-Sep-18 15:30N 40°41' W 074°04'0 0.0
2017-Sep-18 15:00N 40°41' W 074°04'0 0.0
2017-Sep-18 14:29N 40°41' W 074°04'0 0.0
2017-Sep-18 13:59N 40°41' W 074°04'0 0.0
2017-Sep-18 13:29N 40°41' W 074°04'0 0.0
2017-Sep-18 12:56N 40°41' W 074°04'0 0.0
2017-Sep-18 12:26N 40°41' W 074°04'0 0.0
2017-Sep-18 11:56N 40°41' W 074°04'0 0.0
2017-Sep-18 11:29N 40°41' W 074°04'0 0.0
2017-Sep-18 10:59N 40°41' W 074°04'0 0.0
2017-Sep-18 10:26N 40°41' W 074°04'0 0.0
2017-Sep-18 09:59N 40°41' W 074°04'0 0.0
2017-Sep-18 09:29N 40°41' W 074°04'0 0.0
2017-Sep-18 08:59N 40°41' W 074°04'0 0.0
2017-Sep-18 08:29N 40°41' W 074°04'0 0.0
2017-Sep-18 07:59N 40°41' W 074°04'0 0.0
2017-Sep-18 07:29N 40°41' W 074°04'0 0.0
2017-Sep-18 06:59N 40°41' W 074°04'0 0.0
2017-Sep-18 06:29N 40°41' W 074°04'0 0.0
2017-Sep-18 05:59N 40°41' W 074°04'0 0.0
2017-Sep-18 05:29N 40°41' W 074°04'0 0.0
2017-Sep-18 04:59N 40°41' W 074°04'0 0.0
2017-Sep-18 04:29N 40°41' W 074°04'0 0.0
2017-Sep-18 03:59N 40°41' W 074°04'0 0.0
2017-Sep-18 03:26N 40°41' W 074°04'0 0.0
2017-Sep-18 02:59N 40°41' W 074°04'0 0.0
2017-Sep-18 02:29N 40°41' W 074°04'0 0.0
2017-Sep-18 01:59N 40°41' W 074°04'0 0.0
2017-Sep-18 01:26N 40°41' W 074°04'0 0.0
2017-Sep-18 00:59N 40°41' W 074°04'0 0.0
2017-Sep-18 00:29N 40°41' W 074°04'0 0.0
2017-Sep-17 23:59N 40°41' W 074°04'0 0.0
2017-Sep-17 23:29N 40°41' W 074°04'0 0.0
2017-Sep-17 22:59N 40°41' W 074°04'0 0.0
2017-Sep-17 22:30N 40°41' W 074°04'0 0.0
2017-Sep-17 22:00N 40°41' W 074°04'0 0.0
2017-Sep-17 21:30N 40°41' W 074°04'0 0.0
2017-Sep-17 20:57N 40°41' W 074°04'0 0.0
2017-Sep-17 20:24N 40°41' W 074°04'0 0.0
2017-Sep-17 19:57N 40°41' W 074°04'0 0.0
2017-Sep-17 19:27N 40°41' W 074°04'0 0.0
2017-Sep-17 19:00N 40°41' W 074°04'0 0.0
2017-Sep-17 18:30N 40°41' W 074°04'0 0.0
2017-Sep-17 18:00N 40°41' W 074°04'0 0.0
2017-Sep-17 17:30N 40°41' W 074°04'0 0.0
2017-Sep-17 16:57N 40°41' W 074°04'0 0.0
2017-Sep-17 16:27N 40°41' W 074°04'0 0.0
2017-Sep-17 16:00N 40°41' W 074°04'0 0.0
2017-Sep-17 15:30N 40°41' W 074°04'0 0.0
2017-Sep-17 15:00N 40°41' W 074°04'0 0.0
2017-Sep-17 14:30N 40°41' W 074°04'0 0.0
2017-Sep-17 14:00N 40°41' W 074°04'0 0.0
2017-Sep-17 13:30N 40°41' W 074°04'0 0.0
2017-Sep-17 13:00N 40°41' W 074°04'0 0.0
2017-Sep-17 12:30N 40°41' W 074°04'0 0.0
2017-Sep-17 12:00N 40°41' W 074°04'0 0.0
2017-Sep-17 11:30N 40°41' W 074°04'0 0.0
2017-Sep-17 11:00N 40°41' W 074°04'0 0.0
2017-Sep-17 10:30N 40°41' W 074°04'0 0.0
2017-Sep-17 10:00N 40°41' W 074°04'0 0.0
2017-Sep-17 09:30N 40°41' W 074°04'0 0.0
2017-Sep-17 09:00N 40°41' W 074°04'0 0.0
2017-Sep-17 08:30N 40°41' W 074°04'0 0.0
2017-Sep-17 08:00N 40°41' W 074°04'0 0.0
2017-Sep-17 07:30N 40°41' W 074°04'0 0.0
2017-Sep-17 06:57N 40°41' W 074°04'0 0.0
2017-Sep-17 06:28N 40°41' W 074°04'0 0.0
2017-Sep-17 05:58N 40°41' W 074°04'0 0.0
2017-Sep-17 05:28N 40°41' W 074°04'0 0.0
2017-Sep-17 04:58N 40°41' W 074°04'0 0.0
2017-Sep-17 04:28N 40°41' W 074°04'0 0.0
2017-Sep-17 03:58N 40°41' W 074°04'0 0.0
2017-Sep-17 03:28N 40°41' W 074°04'0 0.0
2017-Sep-17 02:58N 40°41' W 074°04'0 0.0
2017-Sep-17 02:28N 40°41' W 074°04'0 0.0
2017-Sep-17 01:58N 40°41' W 074°04'0 0.0
2017-Sep-17 01:16N 40°41' W 074°04'0 0.0
2017-Sep-17 00:58N 40°41' W 074°04'0 0.0
2017-Sep-17 00:28N 40°41' W 074°04'0 0.0
2017-Sep-16 23:58N 40°41' W 074°04'0 0.0
2017-Sep-16 23:25N 40°41' W 074°04'0 0.0
2017-Sep-16 22:58N 40°41' W 074°04'0 0.0
2017-Sep-16 22:28N 40°41' W 074°04'0 0.0
2017-Sep-16 21:55N 40°41' W 074°04'0 0.1
2017-Sep-16 21:28N 40°41' W 074°04'0 0.0
2017-Sep-16 20:58N 40°41' W 074°04'0 0.0
2017-Sep-16 20:28N 40°41' W 074°04'0 0.0
2017-Sep-16 19:58N 40°41' W 074°04'0 0.0
2017-Sep-16 19:30N 40°41' W 074°04'0 0.0
2017-Sep-16 19:00N 40°41' W 074°04'0 0.0
2017-Sep-16 18:29N 40°41' W 074°04'0 0.0
2017-Sep-16 17:59N 40°41' W 074°04'0 0.0
2017-Sep-16 17:30N 40°41' W 074°04'0 0.0
2017-Sep-16 16:59N 40°41' W 074°04'0 0.0
2017-Sep-16 16:29N 40°41' W 074°04'0 0.0
2017-Sep-16 15:59N 40°41' W 074°04'0 0.0
2017-Sep-16 15:29N 40°41' W 074°04'0 0.0
2017-Sep-16 14:59N 40°41' W 074°04'0 0.0
2017-Sep-16 14:30N 40°41' W 074°04'0 0.0
2017-Sep-16 14:00N 40°41' W 074°04'0 0.0
2017-Sep-16 13:25N 40°41' W 074°04'0 0.0
2017-Sep-16 12:58N 40°41' W 074°04'0 0.0
2017-Sep-16 12:28N 40°41' W 074°04'0 0.0
2017-Sep-16 11:58N 40°41' W 074°04'0 0.0
2017-Sep-16 11:30N 40°41' W 074°04'0 0.0
2017-Sep-16 11:00N 40°41' W 074°04'0 0.0
2017-Sep-16 10:30N 40°41' W 074°04'0 0.0
2017-Sep-16 10:00N 40°41' W 074°04'0 0.0
2017-Sep-16 09:30N 40°41' W 074°04'0 0.0
2017-Sep-16 09:00N 40°41' W 074°04'0 0.0
2017-Sep-16 08:30N 40°41' W 074°04'0 0.0
2017-Sep-16 08:00N 40°41' W 074°04'0 0.0
2017-Sep-16 07:30N 40°41' W 074°04'0 0.0
2017-Sep-16 07:00N 40°41' W 074°04'0 0.0
2017-Sep-16 06:30N 40°41' W 074°04'0 0.0
2017-Sep-16 06:00N 40°41' W 074°04'0 0.0
2017-Sep-16 05:30N 40°41' W 074°04'0 0.0
2017-Sep-16 05:00N 40°41' W 074°04'0 0.0
2017-Sep-16 04:30N 40°41' W 074°04'0 0.0
2017-Sep-16 04:00N 40°41' W 074°04'0 0.0
2017-Sep-16 03:30N 40°41' W 074°04'0 0.0
2017-Sep-16 03:00N 40°41' W 074°04'0 0.0
2017-Sep-16 02:30N 40°41' W 074°04'0 0.0
2017-Sep-16 02:00N 40°41' W 074°04'0 0.0
2017-Sep-16 01:30N 40°41' W 074°04'0 0.0
2017-Sep-16 01:00N 40°41' W 074°04'0 0.0
2017-Sep-16 00:31N 40°41' W 074°04'0 0.0
2017-Sep-16 00:01N 40°41' W 074°04'0 0.0
2017-Sep-15 23:30N 40°41' W 074°04'0 0.0
2017-Sep-15 23:01N 40°41' W 074°04'0 0.0
2017-Sep-15 22:30N 40°41' W 074°04'0 0.0
2017-Sep-15 22:01N 40°41' W 074°04'0 0.0
2017-Sep-15 21:31N 40°41' W 074°04'0 0.0
2017-Sep-15 21:01N 40°41' W 074°04'0 0.0
2017-Sep-15 20:31N 40°41' W 074°04'0 0.0
2017-Sep-15 20:01N 40°41' W 074°04'0 0.0
2017-Sep-15 19:31N 40°41' W 074°04'0 0.0
2017-Sep-15 19:01N 40°41' W 074°04'0 0.0
2017-Sep-15 18:31N 40°41' W 074°04'0 0.0
2017-Sep-15 18:01N 40°41' W 074°04'0 0.0
2017-Sep-15 17:31N 40°41' W 074°04'0 0.0
2017-Sep-15 17:01N 40°41' W 074°04'0 0.0
2017-Sep-15 16:30N 40°41' W 074°04'0 0.0
2017-Sep-15 16:00N 40°41' W 074°04'0 0.0
2017-Sep-15 15:31N 40°41' W 074°04'0 0.0
2017-Sep-15 15:01N 40°41' W 074°04'0 0.0
2017-Sep-15 14:31N 40°41' W 074°04'0 0.0
2017-Sep-15 14:01N 40°41' W 074°04'0 0.0
2017-Sep-15 13:30N 40°41' W 074°04'0 0.0
2017-Sep-15 13:01N 40°41' W 074°04'0 0.0
2017-Sep-15 12:30N 40°41' W 074°04'0 0.0
2017-Sep-15 12:00N 40°41' W 074°04'0 0.0
2017-Sep-15 11:31N 40°41' W 074°04'0 0.0
2017-Sep-15 11:01N 40°41' W 074°04'0 0.0
2017-Sep-15 10:31N 40°41' W 074°04'0 0.0
2017-Sep-15 10:01N 40°41' W 074°04'0 0.0
2017-Sep-15 09:30N 40°41' W 074°04'0 0.0
2017-Sep-15 09:00N 40°41' W 074°04'0 0.0
2017-Sep-15 08:31N 40°41' W 074°04'0 0.0
2017-Sep-15 08:01N 40°41' W 074°04'0 0.0
2017-Sep-15 07:30N 40°41' W 074°04'0 0.0
2017-Sep-15 07:01N 40°41' W 074°04'0 0.0
2017-Sep-15 06:30N 40°41' W 074°04'0 0.0
2017-Sep-15 06:00N 40°41' W 074°04'0 0.0
2017-Sep-15 05:30N 40°41' W 074°04'0 0.0
2017-Sep-15 05:01N 40°41' W 074°04'0 0.0
2017-Sep-15 04:31N 40°41' W 074°04'0 0.0
2017-Sep-15 04:00N 40°41' W 074°04'0 0.0
2017-Sep-15 03:31N 40°41' W 074°04'0 0.0
2017-Sep-15 03:01N 40°41' W 074°04'0 0.0
2017-Sep-15 02:31N 40°41' W 074°04'0 0.0
2017-Sep-15 02:01N 40°41' W 074°04'0 0.0
2017-Sep-15 01:30N 40°41' W 074°04'0 0.0
2017-Sep-15 01:01N 40°41' W 074°04'0 0.0
2017-Sep-15 00:31N 40°41' W 074°04'0 0.0
2017-Sep-15 00:00N 40°41' W 074°04'0 0.0
2017-Sep-14 23:31N 40°41' W 074°04'0 0.0
2017-Sep-14 23:01N 40°41' W 074°04'0 0.0
2017-Sep-14 22:31N 40°41' W 074°04'0 0.0
2017-Sep-14 22:00N 40°41' W 074°04'0 0.0
2017-Sep-14 21:30N 40°41' W 074°04'0 0.0
2017-Sep-14 21:01N 40°41' W 074°04'0 0.0
2017-Sep-14 20:31N 40°41' W 074°04'0 0.0
2017-Sep-14 19:31N 40°41' W 074°04'0 0.0
2017-Sep-14 19:00N 40°41' W 074°04'0 0.2
2017-Sep-14 18:30N 40°41' W 074°04'0 0.3
2017-Sep-14 18:00N 40°41' W 074°04'2 3.1
2017-Sep-14 17:30N 40°41' W 074°02'3 5.2
2017-Sep-14 17:01N 40°44' W 074°02'1 1.0
2017-Sep-14 16:31N 40°44' W 074°02'0 0.0
2017-Sep-14 16:01N 40°44' W 074°02'0 0.0
2017-Sep-14 15:31N 40°44' W 074°02'1 2.0
2017-Sep-14 15:01N 40°43' W 074°01'2 3.4
2017-Sep-14 14:30N 40°42' W 073°59'1 1.9
2017-Sep-14 14:01N 40°42' W 074°00'2 4.2
2017-Sep-14 13:31N 40°40' W 074°02'2 4.3
2017-Sep-14 13:01N 40°38' W 074°03'1 2.7
2017-Sep-14 12:30N 40°37' W 074°03'2 4.5
2017-Sep-14 12:01N 40°39' W 074°03'2 4.5
2017-Sep-14 11:31N 40°41' W 074°04'0 0.0
2017-Sep-14 10:59N 40°41' W 074°04'0 0.0
2017-Sep-14 10:30N 40°41' W 074°04'0 0.0
2017-Sep-14 10:00N 40°41' W 074°04'0 0.0
2017-Sep-14 09:30N 40°41' W 074°04'0 0.0
2017-Sep-14 09:00N 40°41' W 074°04'0 0.0
2017-Sep-14 08:30N 40°41' W 074°04'0 0.0
2017-Sep-14 08:00N 40°41' W 074°04'0 0.0
2017-Sep-14 07:30N 40°41' W 074°04'0 0.0
2017-Sep-14 07:00N 40°41' W 074°04'0 0.0
2017-Sep-14 06:30N 40°41' W 074°04'0 0.0
2017-Sep-14 06:00N 40°41' W 074°04'0 0.0
2017-Sep-14 05:30N 40°41' W 074°04'0 0.0
2017-Sep-14 05:00N 40°41' W 074°04'0 0.0
2017-Sep-14 04:30N 40°41' W 074°04'0 0.0
2017-Sep-14 04:00N 40°41' W 074°04'0 0.0
2017-Sep-14 03:30N 40°41' W 074°04'0 0.0
2017-Sep-14 03:00N 40°41' W 074°04'0 0.0
2017-Sep-14 02:30N 40°41' W 074°04'0 0.0
2017-Sep-14 02:00N 40°41' W 074°04'0 0.0
2017-Sep-14 01:27N 40°41' W 074°04'0 0.0
2017-Sep-14 01:00N 40°41' W 074°04'0 0.0
2017-Sep-14 00:30N 40°41' W 074°04'0 0.0
2017-Sep-14 00:00N 40°41' W 074°04'0 0.0
2017-Sep-13 23:30N 40°41' W 074°04'0 0.0
2017-Sep-13 23:00N 40°41' W 074°04'0 0.0
2017-Sep-13 22:21N 40°41' W 074°04'0 0.0
2017-Sep-13 22:00N 40°41' W 074°04'0 0.0
2017-Sep-13 21:30N 40°41' W 074°04'0 0.0
2017-Sep-13 21:00N 40°41' W 074°04'0 0.0
2017-Sep-13 20:30N 40°41' W 074°04'0 0.0
2017-Sep-13 20:00N 40°41' W 074°04'0 0.0
2017-Sep-13 19:30N 40°41' W 074°04'0 0.0
2017-Sep-13 19:00N 40°41' W 074°04'0 0.5
2017-Sep-13 18:30N 40°41' W 074°04'2 3.4
2017-Sep-13 18:00N 40°42' W 074°02'2 3.7
2017-Sep-13 17:30N 40°43' W 074°01'2 3.3
2017-Sep-13 17:00N 40°45' W 074°01'1 1.8
2017-Sep-13 16:30N 40°44' W 074°02'0 0.0
2017-Sep-13 16:00N 40°44' W 074°02'0 0.0
2017-Sep-13 15:30N 40°44' W 074°02'0 0.0
2017-Sep-13 15:00N 40°44' W 074°02'1 1.9
2017-Sep-13 14:30N 40°43' W 074°01'2 4.2
2017-Sep-13 14:00N 40°41' W 074°02'2 3.8
2017-Sep-13 13:30N 40°40' W 074°00'0 0.9
2017-Sep-13 13:00N 40°40' W 074°01'2 4.7
2017-Sep-13 12:30N 40°41' W 074°04'1 1.6
2017-Sep-13 12:00N 40°41' W 074°04'0 0.0
2017-Sep-12 19:26N 40°41' W 074°04'1 1.7
2017-Sep-12 19:00N 40°41' W 074°04'2 4.3
2017-Sep-12 18:30N 40°42' W 074°01'0 0.7
2017-Sep-12 18:00N 40°42' W 074°01'2 3.2
2017-Sep-12 17:30N 40°44' W 074°01'2 3.1
2017-Sep-12 17:00N 40°45' W 074°01'1 2.2
2017-Sep-12 16:30N 40°44' W 074°02'0 0.1
2017-Sep-12 16:00N 40°44' W 074°02'0 0.0
2017-Sep-12 15:30N 40°44' W 074°02'0 0.0
2017-Sep-12 15:00N 40°44' W 074°02'1 1.1
2017-Sep-12 14:30N 40°44' W 074°01'2 4.4
2017-Sep-12 14:01N 40°42' W 074°01'1 2.3
2017-Sep-12 13:30N 40°41' W 074°01'3 5.4
2017-Sep-12 13:00N 40°39' W 074°02'3 5.5
2017-Sep-12 12:30N 40°41' W 074°04'0 0.1
2017-Sep-12 12:00N 40°41' W 074°04'0 0.0
2017-Sep-12 11:26N 40°41' W 074°04'0 0.0
2017-Sep-12 10:59N 40°41' W 074°04'0 0.0
2017-Sep-12 10:29N 40°41' W 074°04'0 0.0
2017-Sep-12 09:59N 40°41' W 074°04'0 0.0
2017-Sep-12 09:29N 40°41' W 074°04'0 0.0
2017-Sep-12 08:59N 40°41' W 074°04'0 0.0
2017-Sep-12 08:29N 40°41' W 074°04'0 0.0
2017-Sep-12 07:59N 40°41' W 074°04'0 0.0
2017-Sep-12 07:29N 40°41' W 074°04'0 0.0
2017-Sep-12 06:59N 40°41' W 074°04'0 0.0
2017-Sep-12 06:29N 40°41' W 074°04'0 0.0
2017-Sep-12 05:56N 40°41' W 074°04'0 0.0
2017-Sep-12 05:29N 40°41' W 074°04'0 0.0
2017-Sep-12 04:59N 40°41' W 074°04'0 0.0
2017-Sep-12 04:29N 40°41' W 074°04'0 0.0
2017-Sep-12 03:59N 40°41' W 074°04'0 0.0
2017-Sep-12 03:29N 40°41' W 074°04'0 0.0
2017-Sep-12 02:59N 40°41' W 074°04'0 0.0
2017-Sep-12 02:26N 40°41' W 074°04'0 0.0
2017-Sep-12 01:59N 40°41' W 074°04'0 0.0
2017-Sep-12 01:29N 40°41' W 074°04'0 0.0
2017-Sep-12 00:59N 40°41' W 074°04'0 0.0
2017-Sep-12 00:29N 40°41' W 074°04'0 0.0
2017-Sep-11 23:59N 40°41' W 074°04'0 0.0
2017-Sep-11 23:29N 40°41' W 074°04'0 0.0
2017-Sep-11 22:56N 40°41' W 074°04'0 0.0
2017-Sep-11 22:29N 40°41' W 074°04'0 0.0
2017-Sep-11 21:59N 40°41' W 074°04'0 0.0
2017-Sep-11 21:29N 40°41' W 074°04'0 0.0
2017-Sep-11 20:56N 40°41' W 074°04'0 0.0
2017-Sep-11 20:29N 40°41' W 074°04'0 0.0
2017-Sep-11 19:56N 40°41' W 074°04'0 0.0
2017-Sep-11 19:29N 40°41' W 074°04'1 2.1
2017-Sep-11 19:00N 40°41' W 074°03'2 4.6
2017-Sep-11 18:30N 40°42' W 074°01'2 3.6
2017-Sep-11 18:00N 40°43' W 074°02'1 1.5
2017-Sep-11 17:30N 40°44' W 074°02'0 0.0
2017-Sep-11 17:00N 40°44' W 074°02'3 6.5
2017-Sep-11 16:30N 40°41' W 074°03'1 2.7
2017-Sep-11 15:59N 40°41' W 074°04'0 0.0
2017-Sep-11 15:29N 40°41' W 074°04'0 0.0
2017-Sep-11 14:59N 40°41' W 074°04'0 0.0
2017-Sep-11 14:30N 40°41' W 074°04'0 0.0
2017-Sep-11 14:00N 40°41' W 074°04'0 0.0
2017-Sep-11 13:24N 40°41' W 074°04'0 0.0
2017-Sep-11 13:00N 40°41' W 074°04'0 0.0
2017-Sep-11 12:30N 40°41' W 074°04'0 0.0
2017-Sep-11 11:57N 40°41' W 074°04'0 0.0
2017-Sep-10 12:14N 40°41' W 074°04'0 0.0
2017-Sep-10 11:59N 40°41' W 074°04'0 0.0
2017-Sep-10 11:27N 40°41' W 074°04'0 0.0
2017-Sep-10 10:57N 40°41' W 074°04'0 0.0
2017-Sep-10 10:27N 40°41' W 074°04'0 0.0
2017-Sep-10 10:00N 40°41' W 074°04'0 0.0
2017-Sep-10 09:30N 40°41' W 074°04'0 0.0
2017-Sep-10 09:00N 40°41' W 074°04'0 0.0
2017-Sep-10 08:30N 40°41' W 074°04'0 0.0
2017-Sep-10 08:00N 40°41' W 074°04'0 0.0
2017-Sep-10 07:30N 40°41' W 074°04'0 0.0
2017-Sep-10 07:00N 40°41' W 074°04'0 0.0
2017-Sep-10 06:30N 40°41' W 074°04'0 0.0
2017-Sep-10 05:57N 40°41' W 074°04'0 0.0
2017-Sep-10 05:30N 40°41' W 074°04'0 0.0
2017-Sep-10 05:00N 40°41' W 074°04'0 0.0
2017-Sep-10 04:27N 40°41' W 074°04'0 0.0
2017-Sep-10 04:00N 40°41' W 074°04'0 0.0
2017-Sep-10 03:30N 40°41' W 074°04'0 0.0
2017-Sep-10 03:00N 40°41' W 074°04'0 0.0
2017-Sep-10 02:30N 40°41' W 074°04'0 0.0
2017-Sep-10 02:00N 40°41' W 074°04'0 0.0
2017-Sep-10 01:27N 40°41' W 074°04'0 0.0
2017-Sep-10 01:00N 40°41' W 074°04'0 0.0
2017-Sep-10 00:30N 40°41' W 074°04'0 0.0
2017-Sep-10 00:00N 40°41' W 074°04'0 0.0
2017-Sep-09 23:30N 40°41' W 074°04'0 0.0
2017-Sep-09 23:00N 40°41' W 074°04'0 0.0
2017-Sep-09 22:30N 40°41' W 074°04'0 0.0
2017-Sep-09 22:00N 40°41' W 074°04'  

Dump ship's entire track history